Cincinnati, Ohio
Traffic Map
Current Weather Conditions
Cincinnati, Ohio
Broken Clouds
Broken Clouds
59°
Feels Like: 59°
Wind Chill: 59° Ceiling: 5500
Heat Index: 59° Visibility: 10mi
Dew Point: 56° Wind: 7mph
Humidity: 90% Direction: 220° (SW)
Pressure: 30.08in Gusts: 0mph
Raw Report DataKLUK 011453Z 22006KT 10SM FEW030 SCT041 BKN055 15/13 A3008 RMK AO2 SLP184 T01500133 51002
Traffic Incident Summary
Active as of:
Severity:
Category:
InformationThere was an issue retrieving the traffic information for this location. Please try a different location or try again shortly.
Advertisements
Track Severe Weather on mobile